sensor_id;sensor_type;location;lat;lon;timestamp;temperature;humidity
16666;DHT22;8446;50.998;6.250;2023-08-08T00:01:39;12.50;99.90
16666;DHT22;8446;50.998;6.250;2023-08-08T00:04:09;12.60;99.90
16666;DHT22;8446;50.998;6.250;2023-08-08T00:06:36;12.80;99.90
16666;DHT22;8446;50.998;6.250;2023-08-08T00:09:03;13.00;99.90
16666;DHT22;8446;50.998;6.250;2023-08-08T00:11:31;13.00;99.90
16666;DHT22;8446;50.998;6.250;2023-08-08T00:13:58;12.80;99.90
16666;DHT22;8446;50.998;6.250;2023-08-08T00:16:25;12.80;99.90
16666;DHT22;8446;50.998;6.250;2023-08-08T00:18:52;12.70;99.90
16666;DHT22;8446;50.998;6.250;2023-08-08T00:21:20;12.50;99.90
16666;DHT22;8446;50.998;6.250;2023-08-08T00:23:46;12.60;99.90
16666;DHT22;8446;50.998;6.250;2023-08-08T00:26:13;12.70;99.90
16666;DHT22;8446;50.998;6.250;2023-08-08T00:28:41;12.70;99.90
16666;DHT22;8446;50.998;6.250;2023-08-08T00:31:08;12.50;99.90
16666;DHT22;8446;50.998;6.250;2023-08-08T00:33:35;12.40;99.90
16666;DHT22;8446;50.998;6.250;2023-08-08T00:36:01;12.40;99.90
16666;DHT22;8446;50.998;6.250;2023-08-08T00:38:28;12.30;99.90
16666;DHT22;8446;50.998;6.250;2023-08-08T00:40:55;12.20;99.90
16666;DHT22;8446;50.998;6.250;2023-08-08T00:43:22;12.20;99.90
16666;DHT22;8446;50.998;6.250;2023-08-08T00:45:50;12.30;99.90
16666;DHT22;8446;50.998;6.250;2023-08-08T00:48:17;12.30;99.90
16666;DHT22;8446;50.998;6.250;2023-08-08T00:50:45;12.30;99.90
16666;DHT22;8446;50.998;6.250;2023-08-08T00:53:15;12.30;99.90
16666;DHT22;8446;50.998;6.250;2023-08-08T00:55:42;12.30;99.90
16666;DHT22;8446;50.998;6.250;2023-08-08T00:58:09;12.30;99.90
16666;DHT22;8446;50.998;6.250;2023-08-08T01:00:36;12.30;99.90
16666;DHT22;8446;50.998;6.250;2023-08-08T01:03:04;12.20;99.90
16666;DHT22;8446;50.998;6.250;2023-08-08T01:05:35;12.20;99.90
16666;DHT22;8446;50.998;6.250;2023-08-08T01:08:06;12.20;99.90
16666;DHT22;8446;50.998;6.250;2023-08-08T01:10:36;12.10;99.90
16666;DHT22;8446;50.998;6.250;2023-08-08T01:13:05;12.20;99.90
16666;DHT22;8446;50.998;6.250;2023-08-08T01:15:34;12.20;99.90
16666;DHT22;8446;50.998;6.250;2023-08-08T01:18:05;12.20;99.90
16666;DHT22;8446;50.998;6.250;2023-08-08T01:20:32;12.20;99.90
16666;DHT22;8446;50.998;6.250;2023-08-08T01:23:08;12.20;99.90
16666;DHT22;8446;50.998;6.250;2023-08-08T01:25:38;12.40;99.90
16666;DHT22;8446;50.998;6.250;2023-08-08T01:28:06;12.20;99.90
16666;DHT22;8446;50.998;6.250;2023-08-08T01:30:33;12.30;99.90
16666;DHT22;8446;50.998;6.250;2023-08-08T01:32:59;12.30;99.90
16666;DHT22;8446;50.998;6.250;2023-08-08T01:35:29;12.40;99.90
16666;DHT22;8446;50.998;6.250;2023-08-08T01:38:04;12.20;99.90
16666;DHT22;8446;50.998;6.250;2023-08-08T01:40:34;12.20;99.90
16666;DHT22;8446;50.998;6.250;2023-08-08T01:43:03;12.20;99.90
16666;DHT22;8446;50.998;6.250;2023-08-08T01:45:31;12.20;99.90
16666;DHT22;8446;50.998;6.250;2023-08-08T01:47:58;12.20;99.90
16666;DHT22;8446;50.998;6.250;2023-08-08T01:50:25;12.20;99.90
16666;DHT22;8446;50.998;6.250;2023-08-08T01:52:52;12.20;99.90
16666;DHT22;8446;50.998;6.250;2023-08-08T01:55:18;12.20;99.90
16666;DHT22;8446;50.998;6.250;2023-08-08T01:57:45;12.30;99.90
16666;DHT22;8446;50.998;6.250;2023-08-08T02:00:14;12.30;99.90
16666;DHT22;8446;50.998;6.250;2023-08-08T02:02:40;12.30;99.90
16666;DHT22;8446;50.998;6.250;2023-08-08T02:05:07;12.40;99.90
16666;DHT22;8446;50.998;6.250;2023-08-08T02:07:34;12.30;99.90
16666;DHT22;8446;50.998;6.250;2023-08-08T02:10:01;12.40;99.90
16666;DHT22;8446;50.998;6.250;2023-08-08T02:12:27;12.50;99.90
16666;DHT22;8446;50.998;6.250;2023-08-08T02:14:55;12.40;99.90
16666;DHT22;8446;50.998;6.250;2023-08-08T02:17:24;12.60;99.90
16666;DHT22;8446;50.998;6.250;2023-08-08T02:19:51;12.70;99.90
16666;DHT22;8446;50.998;6.250;2023-08-08T02:22:18;12.60;99.90
16666;DHT22;8446;50.998;6.250;2023-08-08T02:24:45;12.50;99.90
16666;DHT22;8446;50.998;6.250;2023-08-08T02:27:12;12.50;99.90
16666;DHT22;8446;50.998;6.250;2023-08-08T02:29:39;12.50;99.90
16666;DHT22;8446;50.998;6.250;2023-08-08T02:32:07;12.40;99.90
16666;DHT22;8446;50.998;6.250;2023-08-08T02:34:35;12.40;99.90
16666;DHT22;8446;50.998;6.250;2023-08-08T02:37:02;12.30;99.90
16666;DHT22;8446;50.998;6.250;2023-08-08T02:39:28;12.40;99.90
16666;DHT22;8446;50.998;6.250;2023-08-08T02:41:55;12.30;99.90
16666;DHT22;8446;50.998;6.250;2023-08-08T02:44:22;12.20;99.90
16666;DHT22;8446;50.998;6.250;2023-08-08T02:46:49;12.20;99.90
16666;DHT22;8446;50.998;6.250;2023-08-08T02:49:15;12.10;99.90
16666;DHT22;8446;50.998;6.250;2023-08-08T02:51:44;12.10;99.90
16666;DHT22;8446;50.998;6.250;2023-08-08T02:54:10;12.20;99.90
16666;DHT22;8446;50.998;6.250;2023-08-08T02:56:37;12.20;99.90
16666;DHT22;8446;50.998;6.250;2023-08-08T02:59:04;12.30;99.90
16666;DHT22;8446;50.998;6.250;2023-08-08T03:01:31;12.20;99.90
16666;DHT22;8446;50.998;6.250;2023-08-08T03:03:57;12.20;99.90
16666;DHT22;8446;50.998;6.250;2023-08-08T03:06:25;12.20;99.90
16666;DHT22;8446;50.998;6.250;2023-08-08T03:08:53;12.20;99.90
16666;DHT22;8446;50.998;6.250;2023-08-08T03:11:20;12.30;99.90
16666;DHT22;8446;50.998;6.250;2023-08-08T03:13:47;12.40;99.90
16666;DHT22;8446;50.998;6.250;2023-08-08T03:16:13;12.30;99.90
16666;DHT22;8446;50.998;6.250;2023-08-08T03:18:40;12.30;99.90
16666;DHT22;8446;50.998;6.250;2023-08-08T03:21:07;12.30;99.90
16666;DHT22;8446;50.998;6.250;2023-08-08T03:23:34;12.20;99.90
16666;DHT22;8446;50.998;6.250;2023-08-08T03:26:02;12.20;99.90
16666;DHT22;8446;50.998;6.250;2023-08-08T03:28:29;12.20;99.90
16666;DHT22;8446;50.998;6.250;2023-08-08T03:30:55;12.20;99.90
16666;DHT22;8446;50.998;6.250;2023-08-08T03:33:22;12.20;99.90
16666;DHT22;8446;50.998;6.250;2023-08-08T03:35:49;12.20;99.90
16666;DHT22;8446;50.998;6.250;2023-08-08T03:38:15;12.20;99.90
16666;DHT22;8446;50.998;6.250;2023-08-08T03:40:42;12.30;99.90
16666;DHT22;8446;50.998;6.250;2023-08-08T03:43:10;12.50;99.90
16666;DHT22;8446;50.998;6.250;2023-08-08T03:45:37;12.50;99.90
16666;DHT22;8446;50.998;6.250;2023-08-08T03:48:04;12.50;99.90
16666;DHT22;8446;50.998;6.250;2023-08-08T03:50:31;12.50;99.90
16666;DHT22;8446;50.998;6.250;2023-08-08T03:52:58;12.60;99.90
16666;DHT22;8446;50.998;6.250;2023-08-08T03:55:25;12.70;99.90
16666;DHT22;8446;50.998;6.250;2023-08-08T03:57:52;12.70;99.90
16666;DHT22;8446;50.998;6.250;2023-08-08T04:00:20;12.80;99.90
16666;DHT22;8446;50.998;6.250;2023-08-08T04:02:47;12.80;99.90
16666;DHT22;8446;50.998;6.250;2023-08-08T04:05:14;12.90;99.90
16666;DHT22;8446;50.998;6.250;2023-08-08T04:07:40;13.00;99.90
16666;DHT22;8446;50.998;6.250;2023-08-08T04:10:08;13.00;99.90
16666;DHT22;8446;50.998;6.250;2023-08-08T04:12:34;13.00;99.90
16666;DHT22;8446;50.998;6.250;2023-08-08T04:15:02;13.00;99.90
16666;DHT22;8446;50.998;6.250;2023-08-08T04:17:30;13.00;99.90
16666;DHT22;8446;50.998;6.250;2023-08-08T04:19:56;12.90;99.90
16666;DHT22;8446;50.998;6.250;2023-08-08T04:22:23;12.90;99.90
16666;DHT22;8446;50.998;6.250;2023-08-08T04:24:50;12.90;99.90
16666;DHT22;8446;50.998;6.250;2023-08-08T04:27:17;13.00;99.90
16666;DHT22;8446;50.998;6.250;2023-08-08T04:29:44;13.00;99.90
16666;DHT22;8446;50.998;6.250;2023-08-08T04:32:11;13.10;99.90
16666;DHT22;8446;50.998;6.250;2023-08-08T04:34:39;13.00;99.90
16666;DHT22;8446;50.998;6.250;2023-08-08T04:37:05;12.90;99.90
16666;DHT22;8446;50.998;6.250;2023-08-08T04:39:32;13.00;99.90
16666;DHT22;8446;50.998;6.250;2023-08-08T04:41:59;13.00;99.90
16666;DHT22;8446;50.998;6.250;2023-08-08T04:44:26;13.10;99.90
16666;DHT22;8446;50.998;6.250;2023-08-08T04:46:52;13.20;99.90
16666;DHT22;8446;50.998;6.250;2023-08-08T04:49:19;13.10;99.90
16666;DHT22;8446;50.998;6.250;2023-08-08T04:51:47;13.10;99.90
16666;DHT22;8446;50.998;6.250;2023-08-08T04:54:14;13.10;99.90
16666;DHT22;8446;50.998;6.250;2023-08-08T04:56:41;13.20;99.90
16666;DHT22;8446;50.998;6.250;2023-08-08T04:59:08;13.20;99.90
16666;DHT22;8446;50.998;6.250;2023-08-08T05:01:34;13.10;99.90
16666;DHT22;8446;50.998;6.250;2023-08-08T05:04:01;13.10;99.90
16666;DHT22;8446;50.998;6.250;2023-08-08T05:06:28;13.20;99.90
16666;DHT22;8446;50.998;6.250;2023-08-08T05:08:56;13.10;99.90
16666;DHT22;8446;50.998;6.250;2023-08-08T05:11:23;13.10;99.90
16666;DHT22;8446;50.998;6.250;2023-08-08T05:13:50;13.10;99.90
16666;DHT22;8446;50.998;6.250;2023-08-08T05:16:17;13.10;99.90
16666;DHT22;8446;50.998;6.250;2023-08-08T05:18:44;13.10;99.90
16666;DHT22;8446;50.998;6.250;2023-08-08T05:21:11;13.20;99.90
16666;DHT22;8446;50.998;6.250;2023-08-08T05:23:37;13.10;99.90
16666;DHT22;8446;50.998;6.250;2023-08-08T05:26:05;13.20;99.90
16666;DHT22;8446;50.998;6.250;2023-08-08T05:28:32;13.30;99.90
16666;DHT22;8446;50.998;6.250;2023-08-08T05:30:59;13.30;99.90
16666;DHT22;8446;50.998;6.250;2023-08-08T05:33:26;13.30;99.90
16666;DHT22;8446;50.998;6.250;2023-08-08T05:35:53;13.40;99.90
16666;DHT22;8446;50.998;6.250;2023-08-08T05:38:20;13.50;99.90
16666;DHT22;8446;50.998;6.250;2023-08-08T05:40:46;13.60;99.90
16666;DHT22;8446;50.998;6.250;2023-08-08T05:43:15;13.70;99.90
16666;DHT22;8446;50.998;6.250;2023-08-08T05:45:44;13.70;99.90
16666;DHT22;8446;50.998;6.250;2023-08-08T05:48:11;13.70;99.90
16666;DHT22;8446;50.998;6.250;2023-08-08T05:50:38;13.70;99.90
16666;DHT22;8446;50.998;6.250;2023-08-08T05:53:05;13.70;99.90
16666;DHT22;8446;50.998;6.250;2023-08-08T05:55:32;13.80;99.90
16666;DHT22;8446;50.998;6.250;2023-08-08T05:57:59;13.80;99.90
16666;DHT22;8446;50.998;6.250;2023-08-08T06:00:27;14.00;99.90
16666;DHT22;8446;50.998;6.250;2023-08-08T06:02:54;13.90;99.90
16666;DHT22;8446;50.998;6.250;2023-08-08T06:05:21;13.90;99.90
16666;DHT22;8446;50.998;6.250;2023-08-08T06:07:48;13.80;99.90
16666;DHT22;8446;50.998;6.250;2023-08-08T06:10:15;13.80;99.90
16666;DHT22;8446;50.998;6.250;2023-08-08T06:12:42;13.80;99.90
16666;DHT22;8446;50.998;6.250;2023-08-08T06:15:09;13.80;99.90
16666;DHT22;8446;50.998;6.250;2023-08-08T06:17:37;13.90;99.90
16666;DHT22;8446;50.998;6.250;2023-08-08T06:20:05;14.00;99.90
16666;DHT22;8446;50.998;6.250;2023-08-08T06:22:33;14.00;99.90
16666;DHT22;8446;50.998;6.250;2023-08-08T06:25:00;14.20;99.90
16666;DHT22;8446;50.998;6.250;2023-08-08T06:27:27;14.30;99.90
16666;DHT22;8446;50.998;6.250;2023-08-08T06:29:54;14.30;99.90
16666;DHT22;8446;50.998;6.250;2023-08-08T06:32:21;14.30;99.90
16666;DHT22;8446;50.998;6.250;2023-08-08T06:34:49;14.40;99.90
16666;DHT22;8446;50.998;6.250;2023-08-08T06:37:16;14.50;99.90
16666;DHT22;8446;50.998;6.250;2023-08-08T06:39:43;14.60;99.90
16666;DHT22;8446;50.998;6.250;2023-08-08T06:42:09;14.50;99.90
16666;DHT22;8446;50.998;6.250;2023-08-08T06:44:41;14.60;99.90
16666;DHT22;8446;50.998;6.250;2023-08-08T06:47:08;14.70;99.90
16666;DHT22;8446;50.998;6.250;2023-08-08T06:49:35;14.60;99.90
16666;DHT22;8446;50.998;6.250;2023-08-08T06:52:04;14.70;99.90
16666;DHT22;8446;50.998;6.250;2023-08-08T06:54:31;14.80;99.90
16666;DHT22;8446;50.998;6.250;2023-08-08T06:56:57;14.90;99.90
16666;DHT22;8446;50.998;6.250;2023-08-08T06:59:25;14.90;99.90
16666;DHT22;8446;50.998;6.250;2023-08-08T07:01:53;14.90;99.90
16666;DHT22;8446;50.998;6.250;2023-08-08T07:04:22;14.80;99.90
16666;DHT22;8446;50.998;6.250;2023-08-08T07:06:48;14.90;99.90
16666;DHT22;8446;50.998;6.250;2023-08-08T07:09:17;14.90;99.90
16666;DHT22;8446;50.998;6.250;2023-08-08T07:11:43;14.80;99.90
16666;DHT22;8446;50.998;6.250;2023-08-08T07:14:10;14.90;99.90
16666;DHT22;8446;50.998;6.250;2023-08-08T07:16:37;14.80;99.90
16666;DHT22;8446;50.998;6.250;2023-08-08T07:19:04;14.70;99.90
16666;DHT22;8446;50.998;6.250;2023-08-08T07:21:31;14.80;99.90
16666;DHT22;8446;50.998;6.250;2023-08-08T07:23:58;15.00;99.90
16666;DHT22;8446;50.998;6.250;2023-08-08T07:26:26;15.20;99.90
16666;DHT22;8446;50.998;6.250;2023-08-08T07:28:53;15.20;99.90
16666;DHT22;8446;50.998;6.250;2023-08-08T07:31:20;15.30;99.90
16666;DHT22;8446;50.998;6.250;2023-08-08T07:33:46;15.40;99.90
16666;DHT22;8446;50.998;6.250;2023-08-08T07:36:13;15.20;99.90
16666;DHT22;8446;50.998;6.250;2023-08-08T07:38:40;15.10;99.90
16666;DHT22;8446;50.998;6.250;2023-08-08T07:41:07;15.00;99.90
16666;DHT22;8446;50.998;6.250;2023-08-08T07:43:35;15.00;99.90
16666;DHT22;8446;50.998;6.250;2023-08-08T07:46:02;15.00;99.90
16666;DHT22;8446;50.998;6.250;2023-08-08T07:48:28;15.00;99.90
16666;DHT22;8446;50.998;6.250;2023-08-08T07:50:55;15.00;99.90
16666;DHT22;8446;50.998;6.250;2023-08-08T07:53:22;15.20;99.90
16666;DHT22;8446;50.998;6.250;2023-08-08T07:55:49;15.20;99.90
16666;DHT22;8446;50.998;6.250;2023-08-08T07:58:15;15.20;99.90
16666;DHT22;8446;50.998;6.250;2023-08-08T08:00:44;15.30;99.90
16666;DHT22;8446;50.998;6.250;2023-08-08T08:03:11;15.20;99.90
16666;DHT22;8446;50.998;6.250;2023-08-08T08:05:37;15.30;99.90
16666;DHT22;8446;50.998;6.250;2023-08-08T08:08:04;15.40;99.90
16666;DHT22;8446;50.998;6.250;2023-08-08T08:10:31;15.40;99.90
16666;DHT22;8446;50.998;6.250;2023-08-08T08:12:58;15.40;99.90
16666;DHT22;8446;50.998;6.250;2023-08-08T08:15:25;15.40;99.90
16666;DHT22;8446;50.998;6.250;2023-08-08T08:17:53;15.40;99.90
16666;DHT22;8446;50.998;6.250;2023-08-08T08:20:20;15.60;99.90
16666;DHT22;8446;50.998;6.250;2023-08-08T08:22:47;15.70;99.90
16666;DHT22;8446;50.998;6.250;2023-08-08T08:25:14;15.80;99.90
16666;DHT22;8446;50.998;6.250;2023-08-08T08:27:41;15.90;99.90
16666;DHT22;8446;50.998;6.250;2023-08-08T08:30:08;16.00;99.90
16666;DHT22;8446;50.998;6.250;2023-08-08T08:32:36;16.00;99.90
16666;DHT22;8446;50.998;6.250;2023-08-08T08:35:05;16.20;99.90
16666;DHT22;8446;50.998;6.250;2023-08-08T08:37:32;16.10;99.90
16666;DHT22;8446;50.998;6.250;2023-08-08T08:39:59;16.00;99.90
16666;DHT22;8446;50.998;6.250;2023-08-08T08:42:27;16.20;99.90
16666;DHT22;8446;50.998;6.250;2023-08-08T08:44:57;16.20;99.90
16666;DHT22;8446;50.998;6.250;2023-08-08T08:47:25;16.20;99.90
16666;DHT22;8446;50.998;6.250;2023-08-08T08:49:52;16.00;99.90
16666;DHT22;8446;50.998;6.250;2023-08-08T08:52:21;16.00;99.90
16666;DHT22;8446;50.998;6.250;2023-08-08T08:54:48;16.00;99.90
16666;DHT22;8446;50.998;6.250;2023-08-08T08:57:15;16.10;99.90
16666;DHT22;8446;50.998;6.250;2023-08-08T08:59:42;16.10;99.90
16666;DHT22;8446;50.998;6.250;2023-08-08T09:02:10;16.10;99.90
16666;DHT22;8446;50.998;6.250;2023-08-08T09:04:37;16.30;99.90
16666;DHT22;8446;50.998;6.250;2023-08-08T09:07:06;16.40;99.90
16666;DHT22;8446;50.998;6.250;2023-08-08T09:09:35;16.50;99.90
16666;DHT22;8446;50.998;6.250;2023-08-08T09:12:04;16.40;99.90
16666;DHT22;8446;50.998;6.250;2023-08-08T09:14:31;16.60;99.90
16666;DHT22;8446;50.998;6.250;2023-08-08T09:16:58;16.90;99.90
16666;DHT22;8446;50.998;6.250;2023-08-08T09:19:25;16.70;99.90
16666;DHT22;8446;50.998;6.250;2023-08-08T09:21:52;16.60;99.90
16666;DHT22;8446;50.998;6.250;2023-08-08T09:24:20;16.60;99.90
16666;DHT22;8446;50.998;6.250;2023-08-08T09:26:48;16.60;99.90
16666;DHT22;8446;50.998;6.250;2023-08-08T09:29:15;16.60;99.90
16666;DHT22;8446;50.998;6.250;2023-08-08T09:31:42;16.50;99.90
16666;DHT22;8446;50.998;6.250;2023-08-08T09:34:09;16.50;99.90
16666;DHT22;8446;50.998;6.250;2023-08-08T09:36:36;16.60;99.90
16666;DHT22;8446;50.998;6.250;2023-08-08T09:39:03;16.80;99.90
16666;DHT22;8446;50.998;6.250;2023-08-08T09:41:30;17.20;99.90
16666;DHT22;8446;50.998;6.250;2023-08-08T09:43:59;17.20;99.90
16666;DHT22;8446;50.998;6.250;2023-08-08T09:46:28;17.00;99.90
16666;DHT22;8446;50.998;6.250;2023-08-08T09:48:56;16.90;99.90
16666;DHT22;8446;50.998;6.250;2023-08-08T09:51:24;17.10;99.90
16666;DHT22;8446;50.998;6.250;2023-08-08T09:53:52;17.10;99.90
16666;DHT22;8446;50.998;6.250;2023-08-08T09:56:20;17.00;99.90
16666;DHT22;8446;50.998;6.250;2023-08-08T09:58:48;16.90;99.90
16666;DHT22;8446;50.998;6.250;2023-08-08T10:01:16;16.90;99.90
16666;DHT22;8446;50.998;6.250;2023-08-08T10:03:44;16.90;99.90
16666;DHT22;8446;50.998;6.250;2023-08-08T10:06:13;17.00;99.90
16666;DHT22;8446;50.998;6.250;2023-08-08T10:08:40;16.90;99.90
16666;DHT22;8446;50.998;6.250;2023-08-08T10:11:09;17.00;99.90
16666;DHT22;8446;50.998;6.250;2023-08-08T10:13:37;16.90;99.90
16666;DHT22;8446;50.998;6.250;2023-08-08T10:16:08;16.70;99.90
16666;DHT22;8446;50.998;6.250;2023-08-08T10:18:36;16.70;99.90
16666;DHT22;8446;50.998;6.250;2023-08-08T10:21:04;16.60;99.90
16666;DHT22;8446;50.998;6.250;2023-08-08T10:23:35;16.60;99.90
16666;DHT22;8446;50.998;6.250;2023-08-08T10:26:03;16.60;99.90
16666;DHT22;8446;50.998;6.250;2023-08-08T10:28:32;16.50;99.90
16666;DHT22;8446;50.998;6.250;2023-08-08T10:31:00;16.50;99.90
16666;DHT22;8446;50.998;6.250;2023-08-08T10:33:41;16.50;99.90
16666;DHT22;8446;50.998;6.250;2023-08-08T10:36:09;16.50;99.90
16666;DHT22;8446;50.998;6.250;2023-08-08T10:38:40;16.60;99.90
16666;DHT22;8446;50.998;6.250;2023-08-08T10:41:10;16.70;99.90
16666;DHT22;8446;50.998;6.250;2023-08-08T10:43:37;16.80;99.90
16666;DHT22;8446;50.998;6.250;2023-08-08T10:46:06;16.90;99.90
16666;DHT22;8446;50.998;6.250;2023-08-08T10:48:33;17.30;99.90
16666;DHT22;8446;50.998;6.250;2023-08-08T10:51:02;17.30;99.90
16666;DHT22;8446;50.998;6.250;2023-08-08T10:53:29;17.40;99.90
16666;DHT22;8446;50.998;6.250;2023-08-08T10:55:59;18.00;99.90
16666;DHT22;8446;50.998;6.250;2023-08-08T10:58:35;18.00;99.90
16666;DHT22;8446;50.998;6.250;2023-08-08T11:01:03;17.80;99.90
16666;DHT22;8446;50.998;6.250;2023-08-08T11:03:34;18.10;99.90
16666;DHT22;8446;50.998;6.250;2023-08-08T11:06:03;18.50;99.90
16666;DHT22;8446;50.998;6.250;2023-08-08T11:08:30;18.60;99.90
16666;DHT22;8446;50.998;6.250;2023-08-08T11:10:57;18.10;99.90
16666;DHT22;8446;50.998;6.250;2023-08-08T11:13:24;18.00;99.90
16666;DHT22;8446;50.998;6.250;2023-08-08T11:15:51;17.80;99.90
16666;DHT22;8446;50.998;6.250;2023-08-08T11:18:18;17.50;99.90
16666;DHT22;8446;50.998;6.250;2023-08-08T11:20:45;17.60;99.90
16666;DHT22;8446;50.998;6.250;2023-08-08T11:23:13;17.50;99.90
16666;DHT22;8446;50.998;6.250;2023-08-08T11:25:41;17.50;99.90
16666;DHT22;8446;50.998;6.250;2023-08-08T11:28:09;17.40;99.90
16666;DHT22;8446;50.998;6.250;2023-08-08T11:30:38;17.30;99.90
16666;DHT22;8446;50.998;6.250;2023-08-08T11:33:05;17.40;99.90
16666;DHT22;8446;50.998;6.250;2023-08-08T11:35:32;17.30;99.90
16666;DHT22;8446;50.998;6.250;2023-08-08T11:38:01;17.30;99.90
16666;DHT22;8446;50.998;6.250;2023-08-08T11:40:31;17.30;99.90
16666;DHT22;8446;50.998;6.250;2023-08-08T11:42:59;17.20;99.90
16666;DHT22;8446;50.998;6.250;2023-08-08T11:45:25;17.40;99.90
16666;DHT22;8446;50.998;6.250;2023-08-08T11:47:54;17.80;99.90
16666;DHT22;8446;50.998;6.250;2023-08-08T11:50:23;17.90;99.90
16666;DHT22;8446;50.998;6.250;2023-08-08T11:52:51;18.00;99.90
16666;DHT22;8446;50.998;6.250;2023-08-08T11:55:19;17.80;99.90
16666;DHT22;8446;50.998;6.250;2023-08-08T11:57:49;17.70;99.90
16666;DHT22;8446;50.998;6.250;2023-08-08T12:00:16;17.80;99.90
16666;DHT22;8446;50.998;6.250;2023-08-08T12:02:44;17.90;99.90
16666;DHT22;8446;50.998;6.250;2023-08-08T12:05:13;18.20;99.90
16666;DHT22;8446;50.998;6.250;2023-08-08T12:07:43;18.20;99.90
16666;DHT22;8446;50.998;6.250;2023-08-08T12:10:15;18.20;99.90
16666;DHT22;8446;50.998;6.250;2023-08-08T12:12:43;18.40;99.90
16666;DHT22;8446;50.998;6.250;2023-08-08T12:15:11;18.10;99.90
16666;DHT22;8446;50.998;6.250;2023-08-08T12:17:38;17.90;99.90
16666;DHT22;8446;50.998;6.250;2023-08-08T12:20:07;17.70;99.90
16666;DHT22;8446;50.998;6.250;2023-08-08T12:22:35;17.40;99.90
16666;DHT22;8446;50.998;6.250;2023-08-08T12:25:02;17.20;99.90
16666;DHT22;8446;50.998;6.250;2023-08-08T12:27:29;17.10;99.90
16666;DHT22;8446;50.998;6.250;2023-08-08T12:29:56;17.10;99.90
16666;DHT22;8446;50.998;6.250;2023-08-08T12:32:25;17.20;99.90
16666;DHT22;8446;50.998;6.250;2023-08-08T12:34:54;17.80;99.90
16666;DHT22;8446;50.998;6.250;2023-08-08T12:37:22;18.60;99.90
16666;DHT22;8446;50.998;6.250;2023-08-08T12:39:48;18.50;99.90
16666;DHT22;8446;50.998;6.250;2023-08-08T12:42:15;17.90;99.90
16666;DHT22;8446;50.998;6.250;2023-08-08T12:44:42;17.70;99.90
16666;DHT22;8446;50.998;6.250;2023-08-08T12:47:10;17.60;99.90
16666;DHT22;8446;50.998;6.250;2023-08-08T12:49:39;17.50;99.90
16666;DHT22;8446;50.998;6.250;2023-08-08T12:52:06;17.30;99.90
16666;DHT22;8446;50.998;6.250;2023-08-08T12:54:33;17.20;99.90
16666;DHT22;8446;50.998;6.250;2023-08-08T12:57:01;17.10;99.90
16666;DHT22;8446;50.998;6.250;2023-08-08T12:59:28;16.90;99.90
16666;DHT22;8446;50.998;6.250;2023-08-08T13:01:55;16.90;99.90
16666;DHT22;8446;50.998;6.250;2023-08-08T13:04:22;16.90;99.90
16666;DHT22;8446;50.998;6.250;2023-08-08T13:06:50;16.90;99.90
16666;DHT22;8446;50.998;6.250;2023-08-08T13:09:17;16.80;99.90
16666;DHT22;8446;50.998;6.250;2023-08-08T13:11:43;16.80;99.90
16666;DHT22;8446;50.998;6.250;2023-08-08T13:14:10;16.80;99.90
16666;DHT22;8446;50.998;6.250;2023-08-08T13:16:37;16.80;99.90
16666;DHT22;8446;50.998;6.250;2023-08-08T13:19:04;16.80;99.90
16666;DHT22;8446;50.998;6.250;2023-08-08T13:21:32;16.90;99.90
16666;DHT22;8446;50.998;6.250;2023-08-08T13:24:03;17.00;99.90
16666;DHT22;8446;50.998;6.250;2023-08-08T13:26:31;17.00;99.90
16666;DHT22;8446;50.998;6.250;2023-08-08T13:28:58;17.00;99.90
16666;DHT22;8446;50.998;6.250;2023-08-08T13:31:25;17.10;99.90
16666;DHT22;8446;50.998;6.250;2023-08-08T13:33:51;17.20;99.90
16666;DHT22;8446;50.998;6.250;2023-08-08T13:36:18;17.80;99.90
16666;DHT22;8446;50.998;6.250;2023-08-08T13:38:45;18.50;99.90
16666;DHT22;8446;50.998;6.250;2023-08-08T13:41:13;18.80;99.90
16666;DHT22;8446;50.998;6.250;2023-08-08T13:43:40;18.50;99.90
16666;DHT22;8446;50.998;6.250;2023-08-08T13:46:06;18.40;99.90
16666;DHT22;8446;50.998;6.250;2023-08-08T13:48:35;19.00;99.90
16666;DHT22;8446;50.998;6.250;2023-08-08T13:51:02;18.90;99.90
16666;DHT22;8446;50.998;6.250;2023-08-08T13:53:29;18.40;99.90
16666;DHT22;8446;50.998;6.250;2023-08-08T13:55:56;18.30;99.90
16666;DHT22;8446;50.998;6.250;2023-08-08T13:58:24;18.20;99.90
16666;DHT22;8446;50.998;6.250;2023-08-08T14:00:51;18.20;99.90
16666;DHT22;8446;50.998;6.250;2023-08-08T14:03:18;18.30;99.90
16666;DHT22;8446;50.998;6.250;2023-08-08T14:05:45;18.50;99.90
16666;DHT22;8446;50.998;6.250;2023-08-08T14:08:12;18.80;99.90
16666;DHT22;8446;50.998;6.250;2023-08-08T14:10:38;19.40;99.90
16666;DHT22;8446;50.998;6.250;2023-08-08T14:13:05;19.50;99.90
16666;DHT22;8446;50.998;6.250;2023-08-08T14:15:33;19.50;99.90
16666;DHT22;8446;50.998;6.250;2023-08-08T14:18:00;19.60;99.90
16666;DHT22;8446;50.998;6.250;2023-08-08T14:20:27;19.40;99.90
16666;DHT22;8446;50.998;6.250;2023-08-08T14:22:54;19.10;99.90
16666;DHT22;8446;50.998;6.250;2023-08-08T14:25:21;18.70;99.90
16666;DHT22;8446;50.998;6.250;2023-08-08T14:27:48;18.60;99.90
16666;DHT22;8446;50.998;6.250;2023-08-08T14:30:14;19.30;99.90
16666;DHT22;8446;50.998;6.250;2023-08-08T14:32:43;19.50;99.90
16666;DHT22;8446;50.998;6.250;2023-08-08T14:35:09;20.00;99.90
16666;DHT22;8446;50.998;6.250;2023-08-08T14:37:37;19.40;99.90
16666;DHT22;8446;50.998;6.250;2023-08-08T14:40:05;19.40;99.90
16666;DHT22;8446;50.998;6.250;2023-08-08T14:42:32;19.80;99.90
16666;DHT22;8446;50.998;6.250;2023-08-08T14:44:59;19.90;99.90
16666;DHT22;8446;50.998;6.250;2023-08-08T14:47:26;19.00;99.90
16666;DHT22;8446;50.998;6.250;2023-08-08T14:49:54;19.10;99.90
16666;DHT22;8446;50.998;6.250;2023-08-08T14:52:20;20.10;99.90
16666;DHT22;8446;50.998;6.250;2023-08-08T14:54:48;20.30;99.90
16666;DHT22;8446;50.998;6.250;2023-08-08T14:57:15;20.30;99.90
16666;DHT22;8446;50.998;6.250;2023-08-08T14:59:42;19.70;99.90
16666;DHT22;8446;50.998;6.250;2023-08-08T15:02:09;19.90;99.90
16666;DHT22;8446;50.998;6.250;2023-08-08T15:04:36;19.10;99.90
16666;DHT22;8446;50.998;6.250;2023-08-08T15:07:04;18.90;99.90
16666;DHT22;8446;50.998;6.250;2023-08-08T15:09:31;20.00;99.90
16666;DHT22;8446;50.998;6.250;2023-08-08T15:11:57;20.20;99.90
16666;DHT22;8446;50.998;6.250;2023-08-08T15:14:24;20.40;99.90
16666;DHT22;8446;50.998;6.250;2023-08-08T15:16:52;19.30;99.90
16666;DHT22;8446;50.998;6.250;2023-08-08T15:19:19;19.00;99.90
16666;DHT22;8446;50.998;6.250;2023-08-08T15:21:46;19.10;99.90
16666;DHT22;8446;50.998;6.250;2023-08-08T15:24:14;19.70;99.90
16666;DHT22;8446;50.998;6.250;2023-08-08T15:26:41;19.50;99.90
16666;DHT22;8446;50.998;6.250;2023-08-08T15:29:08;19.60;99.90
16666;DHT22;8446;50.998;6.250;2023-08-08T15:31:35;19.50;99.90
16666;DHT22;8446;50.998;6.250;2023-08-08T15:34:02;19.10;99.90
16666;DHT22;8446;50.998;6.250;2023-08-08T15:36:28;18.80;99.90
16666;DHT22;8446;50.998;6.250;2023-08-08T15:38:55;18.50;99.90
16666;DHT22;8446;50.998;6.250;2023-08-08T15:41:23;18.80;99.90
16666;DHT22;8446;50.998;6.250;2023-08-08T15:43:50;19.10;99.90
16666;DHT22;8446;50.998;6.250;2023-08-08T15:46:17;19.10;99.90